Weather at Slikiai Airstrip

Public forecast

Using degrees Celsius for public forecast. Weather courtesy of forecast.io.

Closest aviation weather report (METAR) to Slikiai Airstrip

Closest report is Kaunas International Airport, 14.7 nm (27.2 km) S.

2023/09/29 13:20 (retrieved 22 minutes ago)

EYKA 291320Z 21005KT 140V250 CAVOK 26/09 Q1018

Closest aviation forecast (TAF) to Slikiai Airstrip

Closest forecast is Kaunas International Airport, 14.7 nm (27.2 km) S.

2023/09/29 12:03 (retrieved 2 hours ago)

TAF TAF EYKA 291100Z 2912/3012 20012KT CAVOK BECMG 3000/3002 OVC030 TEMPO 3003/3012 5000 SHRA BKN005 BKN015CB